sensor_id;sensor_type;location;lat;lon;timestamp;P1;durP1;ratioP1;P2;durP2;ratioP2
2035;SDS011;23642;42.658;23.350;2022-09-21T00:01:54;90.80;;;85.20;;
2035;SDS011;23642;42.658;23.350;2022-09-21T00:04:21;90.67;;;84.60;;
2035;SDS011;23642;42.658;23.350;2022-09-21T00:06:48;92.23;;;86.67;;
2035;SDS011;23642;42.658;23.350;2022-09-21T00:09:15;87.83;;;82.23;;
2035;SDS011;23642;42.658;23.350;2022-09-21T00:11:42;88.87;;;83.30;;
2035;SDS011;23642;42.658;23.350;2022-09-21T00:14:11;91.93;;;86.20;;
2035;SDS011;23642;42.658;23.350;2022-09-21T00:16:39;90.23;;;84.60;;
2035;SDS011;23642;42.658;23.350;2022-09-21T00:19:06;91.47;;;85.97;;
2035;SDS011;23642;42.658;23.350;2022-09-21T00:21:34;91.50;;;85.90;;
2035;SDS011;23642;42.658;23.350;2022-09-21T00:24:02;93.77;;;87.90;;
2035;SDS011;23642;42.658;23.350;2022-09-21T00:26:29;90.13;;;84.43;;
2035;SDS011;23642;42.658;23.350;2022-09-21T00:28:57;89.03;;;83.57;;
2035;SDS011;23642;42.658;23.350;2022-09-21T00:31:28;90.63;;;84.93;;
2035;SDS011;23642;42.658;23.350;2022-09-21T00:33:59;91.20;;;85.80;;
2035;SDS011;23642;42.658;23.350;2022-09-21T00:36:27;91.90;;;86.40;;
2035;SDS011;23642;42.658;23.350;2022-09-21T00:38:55;89.47;;;84.07;;
2035;SDS011;23642;42.658;23.350;2022-09-21T00:41:24;89.37;;;83.87;;
2035;SDS011;23642;42.658;23.350;2022-09-21T00:46:57;89.80;;;84.20;;
2035;SDS011;23642;42.658;23.350;2022-09-21T00:49:29;87.10;;;81.70;;
2035;SDS011;23642;42.658;23.350;2022-09-21T00:52:00;87.90;;;82.60;;
2035;SDS011;23642;42.658;23.350;2022-09-21T00:54:30;88.77;;;83.37;;
2035;SDS011;23642;42.658;23.350;2022-09-21T00:57:01;90.53;;;85.03;;
2035;SDS011;23642;42.658;23.350;2022-09-21T00:59:29;89.63;;;84.13;;
2035;SDS011;23642;42.658;23.350;2022-09-21T01:01:59;92.60;;;86.80;;
2035;SDS011;23642;42.658;23.350;2022-09-21T01:04:26;87.23;;;81.53;;
2035;SDS011;23642;42.658;23.350;2022-09-21T01:06:53;87.10;;;81.70;;
2035;SDS011;23642;42.658;23.350;2022-09-21T01:09:22;86.13;;;80.87;;
2035;SDS011;23642;42.658;23.350;2022-09-21T01:11:52;85.80;;;80.50;;
2035;SDS011;23642;42.658;23.350;2022-09-21T01:17:26;87.13;;;81.83;;
2035;SDS011;23642;42.658;23.350;2022-09-21T01:20:13;85.13;;;79.70;;
2035;SDS011;23642;42.658;23.350;2022-09-21T01:23:01;84.00;;;78.60;;
2035;SDS011;23642;42.658;23.350;2022-09-21T01:25:41;83.43;;;78.03;;
2035;SDS011;23642;42.658;23.350;2022-09-21T01:28:21;82.43;;;77.33;;
2035;SDS011;23642;42.658;23.350;2022-09-21T01:30:56;83.20;;;77.60;;
2035;SDS011;23642;42.658;23.350;2022-09-21T01:33:31;81.73;;;76.73;;
2035;SDS011;23642;42.658;23.350;2022-09-21T01:36:03;84.40;;;78.97;;
2035;SDS011;23642;42.658;23.350;2022-09-21T01:38:35;79.53;;;74.43;;
2035;SDS011;23642;42.658;23.350;2022-09-21T01:41:07;86.33;;;80.77;;
2035;SDS011;23642;42.658;23.350;2022-09-21T01:43:39;84.00;;;78.60;;
2035;SDS011;23642;42.658;23.350;2022-09-21T01:46:12;80.37;;;75.17;;
2035;SDS011;23642;42.658;23.350;2022-09-21T01:48:43;82.30;;;76.90;;
2035;SDS011;23642;42.658;23.350;2022-09-21T01:51:14;79.40;;;74.10;;
2035;SDS011;23642;42.658;23.350;2022-09-21T01:53:43;80.33;;;74.97;;
2035;SDS011;23642;42.658;23.350;2022-09-21T01:56:14;83.03;;;77.73;;
2035;SDS011;23642;42.658;23.350;2022-09-21T01:58:48;80.93;;;75.73;;
2035;SDS011;23642;42.658;23.350;2022-09-21T02:01:22;81.17;;;75.73;;
2035;SDS011;23642;42.658;23.350;2022-09-21T02:03:53;80.73;;;75.00;;
2035;SDS011;23642;42.658;23.350;2022-09-21T02:06:24;79.13;;;73.97;;
2035;SDS011;23642;42.658;23.350;2022-09-21T02:08:53;76.67;;;71.77;;
2035;SDS011;23642;42.658;23.350;2022-09-21T02:11:20;78.70;;;73.70;;
2035;SDS011;23642;42.658;23.350;2022-09-21T02:13:47;75.40;;;70.40;;
2035;SDS011;23642;42.658;23.350;2022-09-21T02:16:24;78.97;;;73.93;;
2035;SDS011;23642;42.658;23.350;2022-09-21T02:19:11;78.07;;;73.17;;
2035;SDS011;23642;42.658;23.350;2022-09-21T02:21:55;75.07;;;70.27;;
2035;SDS011;23642;42.658;23.350;2022-09-21T02:24:32;79.43;;;74.23;;
2035;SDS011;23642;42.658;23.350;2022-09-21T02:27:05;75.10;;;70.27;;
2035;SDS011;23642;42.658;23.350;2022-09-21T02:29:42;74.80;;;70.10;;
2035;SDS011;23642;42.658;23.350;2022-09-21T02:32:19;74.20;;;69.20;;
2035;SDS011;23642;42.658;23.350;2022-09-21T02:34:56;73.60;;;68.77;;
2035;SDS011;23642;42.658;23.350;2022-09-21T02:37:31;75.80;;;71.10;;
2035;SDS011;23642;42.658;23.350;2022-09-21T02:40:02;74.70;;;70.00;;
2035;SDS011;23642;42.658;23.350;2022-09-21T02:42:37;75.07;;;69.90;;
2035;SDS011;23642;42.658;23.350;2022-09-21T02:45:08;71.60;;;67.00;;
2035;SDS011;23642;42.658;23.350;2022-09-21T02:47:41;72.70;;;67.23;;
2035;SDS011;23642;42.658;23.350;2022-09-21T02:50:14;74.30;;;69.37;;
2035;SDS011;23642;42.658;23.350;2022-09-21T02:52:47;76.70;;;71.70;;
2035;SDS011;23642;42.658;23.350;2022-09-21T02:55:14;75.87;;;71.00;;
2035;SDS011;23642;42.658;23.350;2022-09-21T02:57:43;74.23;;;69.43;;
2035;SDS011;23642;42.658;23.350;2022-09-21T03:00:13;74.07;;;69.07;;
2035;SDS011;23642;42.658;23.350;2022-09-21T03:02:44;74.90;;;70.17;;
2035;SDS011;23642;42.658;23.350;2022-09-21T03:05:12;75.57;;;70.57;;
2035;SDS011;23642;42.658;23.350;2022-09-21T03:07:40;73.20;;;68.40;;
2035;SDS011;23642;42.658;23.350;2022-09-21T03:10:07;74.97;;;70.10;;
2035;SDS011;23642;42.658;23.350;2022-09-21T03:12:35;74.50;;;69.63;;
2035;SDS011;23642;42.658;23.350;2022-09-21T03:15:03;76.97;;;72.00;;
2035;SDS011;23642;42.658;23.350;2022-09-21T03:17:30;73.10;;;68.30;;
2035;SDS011;23642;42.658;23.350;2022-09-21T03:19:59;74.57;;;69.40;;
2035;SDS011;23642;42.658;23.350;2022-09-21T03:22:26;75.73;;;70.63;;
2035;SDS011;23642;42.658;23.350;2022-09-21T03:24:54;73.10;;;68.23;;
2035;SDS011;23642;42.658;23.350;2022-09-21T03:27:21;74.73;;;69.60;;
2035;SDS011;23642;42.658;23.350;2022-09-21T03:29:49;72.70;;;67.70;;
2035;SDS011;23642;42.658;23.350;2022-09-21T03:32:16;75.20;;;70.20;;
2035;SDS011;23642;42.658;23.350;2022-09-21T03:34:43;72.40;;;67.70;;
2035;SDS011;23642;42.658;23.350;2022-09-21T03:37:11;71.37;;;66.60;;
2035;SDS011;23642;42.658;23.350;2022-09-21T03:39:38;74.17;;;69.27;;
2035;SDS011;23642;42.658;23.350;2022-09-21T03:42:05;73.33;;;68.53;;
2035;SDS011;23642;42.658;23.350;2022-09-21T03:44:33;73.07;;;68.07;;
2035;SDS011;23642;42.658;23.350;2022-09-21T03:47:01;71.20;;;66.40;;
2035;SDS011;23642;42.658;23.350;2022-09-21T03:49:31;72.03;;;67.20;;
2035;SDS011;23642;42.658;23.350;2022-09-21T03:51:58;71.57;;;66.77;;
2035;SDS011;23642;42.658;23.350;2022-09-21T03:54:26;72.57;;;67.57;;
2035;SDS011;23642;42.658;23.350;2022-09-21T03:56:53;73.47;;;68.27;;
2035;SDS011;23642;42.658;23.350;2022-09-21T03:59:20;72.60;;;67.67;;
2035;SDS011;23642;42.658;23.350;2022-09-21T04:01:47;71.37;;;66.37;;
2035;SDS011;23642;42.658;23.350;2022-09-21T04:04:14;72.83;;;67.97;;
2035;SDS011;23642;42.658;23.350;2022-09-21T04:06:41;73.50;;;68.50;;
2035;SDS011;23642;42.658;23.350;2022-09-21T04:09:10;72.60;;;67.80;;
2035;SDS011;23642;42.658;23.350;2022-09-21T04:11:38;72.17;;;67.03;;
2035;SDS011;23642;42.658;23.350;2022-09-21T04:14:05;73.10;;;68.00;;
2035;SDS011;23642;42.658;23.350;2022-09-21T04:16:34;74.33;;;69.10;;
2035;SDS011;23642;42.658;23.350;2022-09-21T04:19:02;74.60;;;69.40;;
2035;SDS011;23642;42.658;23.350;2022-09-21T04:21:28;76.43;;;70.70;;
2035;SDS011;23642;42.658;23.350;2022-09-21T04:23:55;72.90;;;68.00;;
2035;SDS011;23642;42.658;23.350;2022-09-21T04:26:23;74.23;;;68.93;;
2035;SDS011;23642;42.658;23.350;2022-09-21T04:28:53;77.03;;;71.03;;
2035;SDS011;23642;42.658;23.350;2022-09-21T04:31:20;77.80;;;71.97;;
2035;SDS011;23642;42.658;23.350;2022-09-21T04:33:48;76.07;;;70.67;;
2035;SDS011;23642;42.658;23.350;2022-09-21T04:36:16;75.10;;;69.93;;
2035;SDS011;23642;42.658;23.350;2022-09-21T04:38:43;75.93;;;70.40;;
2035;SDS011;23642;42.658;23.350;2022-09-21T04:41:11;76.17;;;70.80;;
2035;SDS011;23642;42.658;23.350;2022-09-21T04:43:40;75.50;;;70.50;;
2035;SDS011;23642;42.658;23.350;2022-09-21T04:46:10;74.17;;;68.73;;
2035;SDS011;23642;42.658;23.350;2022-09-21T04:48:38;75.50;;;69.70;;
2035;SDS011;23642;42.658;23.350;2022-09-21T04:51:05;76.57;;;70.67;;
2035;SDS011;23642;42.658;23.350;2022-09-21T04:53:33;78.63;;;72.83;;
2035;SDS011;23642;42.658;23.350;2022-09-21T04:56:02;79.53;;;72.90;;
2035;SDS011;23642;42.658;23.350;2022-09-21T04:58:30;79.07;;;72.37;;
2035;SDS011;23642;42.658;23.350;2022-09-21T05:00:58;81.43;;;75.33;;
2035;SDS011;23642;42.658;23.350;2022-09-21T05:03:27;79.70;;;73.83;;
2035;SDS011;23642;42.658;23.350;2022-09-21T05:05:55;76.63;;;71.23;;
2035;SDS011;23642;42.658;23.350;2022-09-21T05:08:23;82.90;;;77.07;;
2035;SDS011;23642;42.658;23.350;2022-09-21T05:11:04;81.07;;;75.37;;
2035;SDS011;23642;42.658;23.350;2022-09-21T05:13:32;81.03;;;75.40;;
2035;SDS011;23642;42.658;23.350;2022-09-21T05:15:59;82.60;;;76.73;;
2035;SDS011;23642;42.658;23.350;2022-09-21T05:18:27;81.37;;;75.73;;
2035;SDS011;23642;42.658;23.350;2022-09-21T05:20:54;81.93;;;76.33;;
2035;SDS011;23642;42.658;23.350;2022-09-21T05:23:22;80.83;;;75.33;;
2035;SDS011;23642;42.658;23.350;2022-09-21T05:25:49;84.53;;;78.27;;
2035;SDS011;23642;42.658;23.350;2022-09-21T05:28:16;83.67;;;77.87;;
2035;SDS011;23642;42.658;23.350;2022-09-21T05:30:45;80.57;;;74.97;;
2035;SDS011;23642;42.658;23.350;2022-09-21T05:33:19;83.83;;;77.97;;
2035;SDS011;23642;42.658;23.350;2022-09-21T05:35:58;83.23;;;77.67;;
2035;SDS011;23642;42.658;23.350;2022-09-21T05:38:34;84.97;;;79.20;;
2035;SDS011;23642;42.658;23.350;2022-09-21T05:41:01;85.20;;;79.40;;
2035;SDS011;23642;42.658;23.350;2022-09-21T05:43:29;87.50;;;81.50;;
2035;SDS011;23642;42.658;23.350;2022-09-21T05:45:57;87.70;;;81.00;;
2035;SDS011;23642;42.658;23.350;2022-09-21T05:48:29;87.90;;;81.87;;
2035;SDS011;23642;42.658;23.350;2022-09-21T05:51:04;89.97;;;83.27;;
2035;SDS011;23642;42.658;23.350;2022-09-21T05:53:47;87.77;;;81.37;;
2035;SDS011;23642;42.658;23.350;2022-09-21T05:56:27;86.67;;;80.67;;
2035;SDS011;23642;42.658;23.350;2022-09-21T05:59:02;87.10;;;81.20;;
2035;SDS011;23642;42.658;23.350;2022-09-21T06:01:53;89.13;;;82.63;;
2035;SDS011;23642;42.658;23.350;2022-09-21T06:04:35;91.93;;;85.03;;
2035;SDS011;23642;42.658;23.350;2022-09-21T06:07:06;89.47;;;83.27;;
2035;SDS011;23642;42.658;23.350;2022-09-21T06:09:34;90.47;;;84.37;;
2035;SDS011;23642;42.658;23.350;2022-09-21T06:12:02;90.30;;;84.00;;
2035;SDS011;23642;42.658;23.350;2022-09-21T06:14:31;88.47;;;82.20;;
2035;SDS011;23642;42.658;23.350;2022-09-21T06:16:58;91.77;;;85.40;;
2035;SDS011;23642;42.658;23.350;2022-09-21T06:19:25;91.80;;;85.70;;
2035;SDS011;23642;42.658;23.350;2022-09-21T06:21:52;89.20;;;83.03;;
2035;SDS011;23642;42.658;23.350;2022-09-21T06:24:20;90.87;;;84.30;;
2035;SDS011;23642;42.658;23.350;2022-09-21T06:26:55;93.07;;;86.60;;
2035;SDS011;23642;42.658;23.350;2022-09-21T06:29:24;91.87;;;85.30;;
2035;SDS011;23642;42.658;23.350;2022-09-21T06:31:51;94.37;;;87.10;;
2035;SDS011;23642;42.658;23.350;2022-09-21T06:34:18;90.50;;;84.13;;
2035;SDS011;23642;42.658;23.350;2022-09-21T06:36:47;92.07;;;85.67;;
2035;SDS011;23642;42.658;23.350;2022-09-21T06:39:14;91.13;;;85.13;;
2035;SDS011;23642;42.658;23.350;2022-09-21T06:41:42;88.00;;;82.10;;
2035;SDS011;23642;42.658;23.350;2022-09-21T06:44:12;90.73;;;84.63;;
2035;SDS011;23642;42.658;23.350;2022-09-21T06:46:38;90.87;;;84.87;;
2035;SDS011;23642;42.658;23.350;2022-09-21T06:49:05;92.67;;;86.37;;
2035;SDS011;23642;42.658;23.350;2022-09-21T06:51:35;92.40;;;86.20;;
2035;SDS011;23642;42.658;23.350;2022-09-21T06:54:03;92.70;;;86.60;;
2035;SDS011;23642;42.658;23.350;2022-09-21T06:56:30;93.33;;;86.90;;
2035;SDS011;23642;42.658;23.350;2022-09-21T06:58:59;92.70;;;86.67;;
2035;SDS011;23642;42.658;23.350;2022-09-21T07:01:26;90.50;;;84.70;;
2035;SDS011;23642;42.658;23.350;2022-09-21T07:03:54;93.10;;;87.10;;
2035;SDS011;23642;42.658;23.350;2022-09-21T07:06:24;90.67;;;84.77;;
2035;SDS011;23642;42.658;23.350;2022-09-21T07:08:51;92.70;;;86.30;;
2035;SDS011;23642;42.658;23.350;2022-09-21T07:11:18;91.70;;;85.70;;
2035;SDS011;23642;42.658;23.350;2022-09-21T07:13:46;89.97;;;84.17;;
2035;SDS011;23642;42.658;23.350;2022-09-21T07:16:15;91.30;;;85.40;;
2035;SDS011;23642;42.658;23.350;2022-09-21T07:18:43;92.67;;;86.57;;
2035;SDS011;23642;42.658;23.350;2022-09-21T07:21:10;87.83;;;82.20;;
2035;SDS011;23642;42.658;23.350;2022-09-21T07:23:41;89.10;;;83.30;;
2035;SDS011;23642;42.658;23.350;2022-09-21T07:26:09;91.43;;;85.50;;
2035;SDS011;23642;42.658;23.350;2022-09-21T07:28:37;91.63;;;85.50;;
2035;SDS011;23642;42.658;23.350;2022-09-21T07:31:05;89.40;;;83.70;;
2035;SDS011;23642;42.658;23.350;2022-09-21T07:33:34;90.40;;;84.63;;
2035;SDS011;23642;42.658;23.350;2022-09-21T07:36:02;89.57;;;83.87;;
2035;SDS011;23642;42.658;23.350;2022-09-21T07:38:34;90.67;;;84.87;;
2035;SDS011;23642;42.658;23.350;2022-09-21T07:41:02;88.37;;;82.67;;
2035;SDS011;23642;42.658;23.350;2022-09-21T07:43:29;88.00;;;82.40;;
2035;SDS011;23642;42.658;23.350;2022-09-21T07:45:57;92.47;;;86.10;;
2035;SDS011;23642;42.658;23.350;2022-09-21T07:48:26;91.17;;;85.07;;
2035;SDS011;23642;42.658;23.350;2022-09-21T07:50:58;91.17;;;85.37;;
2035;SDS011;23642;42.658;23.350;2022-09-21T07:53:30;88.80;;;83.10;;
2035;SDS011;23642;42.658;23.350;2022-09-21T07:56:04;90.97;;;85.10;;
2035;SDS011;23642;42.658;23.350;2022-09-21T07:58:34;88.23;;;82.33;;
2035;SDS011;23642;42.658;23.350;2022-09-21T08:01:18;87.97;;;82.37;;
2035;SDS011;23642;42.658;23.350;2022-09-21T08:03:47;89.93;;;84.30;;
2035;SDS011;23642;42.658;23.350;2022-09-21T08:06:16;91.13;;;85.23;;
2035;SDS011;23642;42.658;23.350;2022-09-21T08:08:43;90.10;;;84.33;;
2035;SDS011;23642;42.658;23.350;2022-09-21T08:11:12;89.57;;;83.77;;
2035;SDS011;23642;42.658;23.350;2022-09-21T08:13:40;88.60;;;82.90;;
2035;SDS011;23642;42.658;23.350;2022-09-21T08:16:07;91.43;;;85.47;;
2035;SDS011;23642;42.658;23.350;2022-09-21T08:18:35;92.47;;;86.27;;
2035;SDS011;23642;42.658;23.350;2022-09-21T08:21:03;92.47;;;86.47;;
2035;SDS011;23642;42.658;23.350;2022-09-21T08:23:31;92.37;;;86.00;;
2035;SDS011;23642;42.658;23.350;2022-09-21T08:25:58;92.03;;;86.13;;
2035;SDS011;23642;42.658;23.350;2022-09-21T08:28:26;91.47;;;85.47;;
2035;SDS011;23642;42.658;23.350;2022-09-21T08:30:53;89.13;;;83.33;;
2035;SDS011;23642;42.658;23.350;2022-09-21T08:33:33;89.80;;;84.10;;
2035;SDS011;23642;42.658;23.350;2022-09-21T08:36:01;89.53;;;83.53;;
2035;SDS011;23642;42.658;23.350;2022-09-21T08:38:32;90.60;;;84.27;;
2035;SDS011;23642;42.658;23.350;2022-09-21T08:41:00;89.63;;;83.70;;
2035;SDS011;23642;42.658;23.350;2022-09-21T08:43:42;88.97;;;83.17;;
2035;SDS011;23642;42.658;23.350;2022-09-21T08:46:12;90.40;;;84.50;;
2035;SDS011;23642;42.658;23.350;2022-09-21T08:48:44;87.80;;;82.00;;
2035;SDS011;23642;42.658;23.350;2022-09-21T08:51:16;89.30;;;83.70;;
2035;SDS011;23642;42.658;23.350;2022-09-21T08:53:49;88.63;;;82.93;;
2035;SDS011;23642;42.658;23.350;2022-09-21T08:56:19;88.70;;;83.00;;
2035;SDS011;23642;42.658;23.350;2022-09-21T08:58:57;88.00;;;82.40;;
2035;SDS011;23642;42.658;23.350;2022-09-21T09:01:32;90.70;;;85.00;;
2035;SDS011;23642;42.658;23.350;2022-09-21T09:04:24;91.20;;;85.40;;
2035;SDS011;23642;42.658;23.350;2022-09-21T09:07:00;89.80;;;84.23;;
2035;SDS011;23642;42.658;23.350;2022-09-21T09:09:48;88.60;;;83.10;;
2035;SDS011;23642;42.658;23.350;2022-09-21T09:12:35;88.77;;;83.17;;
2035;SDS011;23642;42.658;23.350;2022-09-21T09:15:21;91.17;;;85.37;;
2035;SDS011;23642;42.658;23.350;2022-09-21T09:18:16;89.00;;;83.40;;
2035;SDS011;23642;42.658;23.350;2022-09-21T09:20:52;87.73;;;82.17;;
2035;SDS011;23642;42.658;23.350;2022-09-21T09:23:30;88.80;;;83.20;;
2035;SDS011;23642;42.658;23.350;2022-09-21T09:26:03;87.73;;;82.00;;
2035;SDS011;23642;42.658;23.350;2022-09-21T09:28:35;90.70;;;85.10;;
2035;SDS011;23642;42.658;23.350;2022-09-21T09:31:10;87.77;;;82.17;;
2035;SDS011;23642;42.658;23.350;2022-09-21T09:33:47;88.23;;;82.53;;
2035;SDS011;23642;42.658;23.350;2022-09-21T09:36:20;88.33;;;82.40;;
2035;SDS011;23642;42.658;23.350;2022-09-21T09:38:50;88.90;;;83.20;;
2035;SDS011;23642;42.658;23.350;2022-09-21T09:41:32;88.13;;;82.40;;
2035;SDS011;23642;42.658;23.350;2022-09-21T09:44:17;89.30;;;83.80;;
2035;SDS011;23642;42.658;23.350;2022-09-21T09:46:56;88.43;;;82.83;;
2035;SDS011;23642;42.658;23.350;2022-09-21T09:49:33;86.97;;;81.57;;
2035;SDS011;23642;42.658;23.350;2022-09-21T09:52:12;86.50;;;81.20;;
2035;SDS011;23642;42.658;23.350;2022-09-21T09:54:40;87.47;;;82.07;;
2035;SDS011;23642;42.658;23.350;2022-09-21T09:57:09;87.40;;;82.00;;
2035;SDS011;23642;42.658;23.350;2022-09-21T09:59:38;87.60;;;82.17;;
2035;SDS011;23642;42.658;23.350;2022-09-21T10:02:17;85.17;;;79.90;;
2035;SDS011;23642;42.658;23.350;2022-09-21T10:04:55;88.80;;;83.20;;
2035;SDS011;23642;42.658;23.350;2022-09-21T10:07:34;86.40;;;81.10;;
2035;SDS011;23642;42.658;23.350;2022-09-21T10:10:05;87.87;;;82.53;;
2035;SDS011;23642;42.658;23.350;2022-09-21T10:12:50;87.90;;;82.40;;
2035;SDS011;23642;42.658;23.350;2022-09-21T10:15:18;86.40;;;81.00;;
2035;SDS011;23642;42.658;23.350;2022-09-21T10:17:57;86.20;;;80.80;;
2035;SDS011;23642;42.658;23.350;2022-09-21T10:21:33;84.50;;;78.90;;
2035;SDS011;23642;42.658;23.350;2022-09-21T10:24:05;85.57;;;80.07;;
2035;SDS011;23642;42.658;23.350;2022-09-21T10:26:41;84.00;;;78.83;;
2035;SDS011;23642;42.658;23.350;2022-09-21T10:29:17;86.73;;;81.43;;
2035;SDS011;23642;42.658;23.350;2022-09-21T10:31:54;86.60;;;81.30;;
2035;SDS011;23642;42.658;23.350;2022-09-21T10:34:22;87.67;;;82.17;;
2035;SDS011;23642;42.658;23.350;2022-09-21T10:36:54;86.97;;;81.67;;
2035;SDS011;23642;42.658;23.350;2022-09-21T10:39:23;85.60;;;80.10;;
2035;SDS011;23642;42.658;23.350;2022-09-21T10:42:01;83.47;;;78.37;;
2035;SDS011;23642;42.658;23.350;2022-09-21T10:44:37;88.00;;;81.50;;
2035;SDS011;23642;42.658;23.350;2022-09-21T10:47:14;83.97;;;78.67;;
2035;SDS011;23642;42.658;23.350;2022-09-21T10:49:44;86.20;;;80.80;;
2035;SDS011;23642;42.658;23.350;2022-09-21T10:52:14;85.07;;;79.97;;
2035;SDS011;23642;42.658;23.350;2022-09-21T10:54:43;85.90;;;80.70;;
2035;SDS011;23642;42.658;23.350;2022-09-21T10:57:16;85.40;;;80.30;;
2035;SDS011;23642;42.658;23.350;2022-09-21T10:59:49;86.17;;;80.50;;
2035;SDS011;23642;42.658;23.350;2022-09-21T11:02:24;84.00;;;78.80;;
2035;SDS011;23642;42.658;23.350;2022-09-21T11:04:59;84.10;;;79.00;;
2035;SDS011;23642;42.658;23.350;2022-09-21T11:07:34;82.77;;;77.80;;
2035;SDS011;23642;42.658;23.350;2022-09-21T11:10:07;84.20;;;79.07;;
2035;SDS011;23642;42.658;23.350;2022-09-21T11:12:44;85.80;;;80.60;;
2035;SDS011;23642;42.658;23.350;2022-09-21T11:15:22;86.00;;;81.00;;
2035;SDS011;23642;42.658;23.350;2022-09-21T11:18:00;84.90;;;79.90;;
2035;SDS011;23642;42.658;23.350;2022-09-21T11:20:41;85.67;;;80.57;;
2035;SDS011;23642;42.658;23.350;2022-09-21T11:26:14;88.40;;;83.20;;
2035;SDS011;23642;42.658;23.350;2022-09-21T11:28:57;86.03;;;80.87;;
2035;SDS011;23642;42.658;23.350;2022-09-21T11:34:42;87.00;;;81.70;;
2035;SDS011;23642;42.658;23.350;2022-09-21T11:37:26;85.10;;;80.00;;
2035;SDS011;23642;42.658;23.350;2022-09-21T11:40:15;85.50;;;80.30;;
2035;SDS011;23642;42.658;23.350;2022-09-21T11:42:58;86.10;;;81.00;;
2035;SDS011;23642;42.658;23.350;2022-09-21T11:48:29;88.17;;;83.00;;
2035;SDS011;23642;42.658;23.350;2022-09-21T11:51:12;87.77;;;82.67;;
2035;SDS011;23642;42.658;23.350;2022-09-21T11:54:02;87.13;;;81.93;;
2035;SDS011;23642;42.658;23.350;2022-09-21T11:56:51;87.07;;;81.87;;
2035;SDS011;23642;42.658;23.350;2022-09-21T12:02:25;86.60;;;81.47;;
2035;SDS011;23642;42.658;23.350;2022-09-21T12:05:04;83.83;;;78.83;;
2035;SDS011;23642;42.658;23.350;2022-09-21T12:07:48;84.50;;;79.40;;
2035;SDS011;23642;42.658;23.350;2022-09-21T12:10:35;86.20;;;80.80;;
2035;SDS011;23642;42.658;23.350;2022-09-21T12:13:20;86.17;;;80.97;;
2035;SDS011;23642;42.658;23.350;2022-09-21T12:15:57;86.20;;;81.00;;
2035;SDS011;23642;42.658;23.350;2022-09-21T12:18:33;90.57;;;84.93;;
2035;SDS011;23642;42.658;23.350;2022-09-21T12:21:10;82.47;;;77.07;;
2035;SDS011;23642;42.658;23.350;2022-09-21T12:23:43;85.50;;;80.30;;
2035;SDS011;23642;42.658;23.350;2022-09-21T12:26:18;86.40;;;81.20;;
2035;SDS011;23642;42.658;23.350;2022-09-21T12:28:49;86.87;;;81.77;;
2035;SDS011;23642;42.658;23.350;2022-09-21T12:31:20;87.50;;;82.30;;
2035;SDS011;23642;42.658;23.350;2022-09-21T12:33:55;87.13;;;81.93;;
2035;SDS011;23642;42.658;23.350;2022-09-21T12:36:32;86.10;;;80.90;;
2035;SDS011;23642;42.658;23.350;2022-09-21T12:39:04;87.83;;;82.23;;
2035;SDS011;23642;42.658;23.350;2022-09-21T12:41:37;85.80;;;80.40;;
2035;SDS011;23642;42.658;23.350;2022-09-21T12:44:13;86.20;;;81.00;;
2035;SDS011;23642;42.658;23.350;2022-09-21T12:46:44;88.20;;;82.90;;
2035;SDS011;23642;42.658;23.350;2022-09-21T12:49:15;84.20;;;79.00;;
2035;SDS011;23642;42.658;23.350;2022-09-21T12:51:48;84.60;;;79.40;;
2035;SDS011;23642;42.658;23.350;2022-09-21T12:54:23;89.33;;;83.73;;
2035;SDS011;23642;42.658;23.350;2022-09-21T12:56:58;84.60;;;79.40;;
2035;SDS011;23642;42.658;23.350;2022-09-21T12:59:33;86.50;;;81.10;;
2035;SDS011;23642;42.658;23.350;2022-09-21T13:02:12;89.17;;;83.63;;
2035;SDS011;23642;42.658;23.350;2022-09-21T13:04:49;84.63;;;79.43;;
2035;SDS011;23642;42.658;23.350;2022-09-21T13:07:31;84.37;;;79.20;;
2035;SDS011;23642;42.658;23.350;2022-09-21T13:10:17;86.70;;;81.07;;
2035;SDS011;23642;42.658;23.350;2022-09-21T13:12:53;86.63;;;81.17;;
2035;SDS011;23642;42.658;23.350;2022-09-21T13:15:26;87.17;;;81.30;;
2035;SDS011;23642;42.658;23.350;2022-09-21T13:17:57;87.43;;;82.03;;
2035;SDS011;23642;42.658;23.350;2022-09-21T13:20:26;87.10;;;81.80;;
2035;SDS011;23642;42.658;23.350;2022-09-21T13:23:00;86.27;;;80.97;;
2035;SDS011;23642;42.658;23.350;2022-09-21T13:25:28;86.60;;;81.20;;
2035;SDS011;23642;42.658;23.350;2022-09-21T13:28:02;85.23;;;79.83;;
2035;SDS011;23642;42.658;23.350;2022-09-21T13:30:35;87.50;;;81.80;;
2035;SDS011;23642;42.658;23.350;2022-09-21T13:33:28;84.00;;;78.70;;
2035;SDS011;23642;42.658;23.350;2022-09-21T13:39:02;85.40;;;80.20;;
2035;SDS011;23642;42.658;23.350;2022-09-21T13:41:43;85.80;;;80.50;;
2035;SDS011;23642;42.658;23.350;2022-09-21T13:44:18;87.40;;;82.10;;
2035;SDS011;23642;42.658;23.350;2022-09-21T13:47:00;86.10;;;80.90;;
2035;SDS011;23642;42.658;23.350;2022-09-21T13:49:29;85.07;;;79.90;;
2035;SDS011;23642;42.658;23.350;2022-09-21T13:52:00;84.87;;;79.77;;
2035;SDS011;23642;42.658;23.350;2022-09-21T13:54:32;85.80;;;80.60;;
2035;SDS011;23642;42.658;23.350;2022-09-21T13:57:14;86.77;;;81.57;;
2035;SDS011;23642;42.658;23.350;2022-09-21T13:59:45;87.43;;;82.03;;
2035;SDS011;23642;42.658;23.350;2022-09-21T14:02:22;84.73;;;79.63;;
2035;SDS011;23642;42.658;23.350;2022-09-21T14:04:57;87.10;;;81.80;;
2035;SDS011;23642;42.658;23.350;2022-09-21T14:07:30;88.60;;;83.40;;
2035;SDS011;23642;42.658;23.350;2022-09-21T14:10:02;87.80;;;82.50;;
2035;SDS011;23642;42.658;23.350;2022-09-21T14:12:32;87.97;;;82.77;;
2035;SDS011;23642;42.658;23.350;2022-09-21T14:15:08;87.23;;;81.93;;
2035;SDS011;23642;42.658;23.350;2022-09-21T14:21:12;89.10;;;83.60;;
2035;SDS011;23642;42.658;23.350;2022-09-21T14:29:41;88.73;;;83.47;;
2035;SDS011;23642;42.658;23.350;2022-09-21T14:32:13;94.20;;;88.60;;
2035;SDS011;23642;42.658;23.350;2022-09-21T14:34:45;102.60;;;96.10;;
2035;SDS011;23642;42.658;23.350;2022-09-21T14:37:24;100.53;;;94.43;;
2035;SDS011;23642;42.658;23.350;2022-09-21T14:39:54;101.47;;;95.27;;
2035;SDS011;23642;42.658;23.350;2022-09-21T14:42:25;100.40;;;94.40;;
2035;SDS011;23642;42.658;23.350;2022-09-21T14:44:57;95.13;;;89.53;;
2035;SDS011;23642;42.658;23.350;2022-09-21T14:47:40;91.00;;;85.13;;
2035;SDS011;23642;42.658;23.350;2022-09-21T14:50:20;91.20;;;85.60;;
2035;SDS011;23642;42.658;23.350;2022-09-21T14:53:02;91.70;;;85.90;;
2035;SDS011;23642;42.658;23.350;2022-09-21T14:56:12;90.10;;;84.70;;
2035;SDS011;23642;42.658;23.350;2022-09-21T14:58:57;88.03;;;82.77;;
2035;SDS011;23642;42.658;23.350;2022-09-21T15:01:37;86.80;;;81.60;;
2035;SDS011;23642;42.658;23.350;2022-09-21T15:07:09;90.80;;;85.37;;
2035;SDS011;23642;42.658;23.350;2022-09-21T15:10:17;88.03;;;82.63;;
2035;SDS011;23642;42.658;23.350;2022-09-21T15:13:12;86.27;;;80.90;;
2035;SDS011;23642;42.658;23.350;2022-09-21T15:15:50;88.13;;;82.83;;
2035;SDS011;23642;42.658;23.350;2022-09-21T15:18:31;87.87;;;82.27;;
2035;SDS011;23642;42.658;23.350;2022-09-21T15:21:00;85.07;;;79.87;;
2035;SDS011;23642;42.658;23.350;2022-09-21T15:23:30;88.00;;;82.60;;
2035;SDS011;23642;42.658;23.350;2022-09-21T15:26:00;86.27;;;80.97;;
2035;SDS011;23642;42.658;23.350;2022-09-21T15:28:34;85.00;;;79.80;;